Time;durP1;ratioP1;P1;durP2;ratioP2;P2;SDS_P1;SDS_P2;PMS_P1;PMS_P2;Temp;Humidity;BMP_temperature;BMP_pressure;BME280_temperature;BME280_humidity;BME280_pressure;Samples;Min_cycle;Max_cycle;Signal;HPM_P1;HPM_P2
2022/01/01 00:01:42;;;;;;;24.93;7.10;;;-4.30;99.90;;;;;;2217075;64;20545;-33
2022/01/01 00:04:09;;;;;;;19.23;5.43;;;-4.30;99.90;;;;;;2216939;64;20116;-33
2022/01/01 00:06:36;;;;;;;24.03;8.43;;;-4.30;99.90;;;;;;2217019;64;20631;-35
2022/01/01 00:09:03;;;;;;;29.57;8.07;;;-4.20;99.90;;;;;;2216899;64;20093;-34
2022/01/01 00:11:30;;;;;;;22.57;6.70;;;-4.30;99.90;;;;;;2216959;64;20577;-34
2022/01/01 00:13:58;;;;;;;27.20;7.70;;;-4.30;99.90;;;;;;2216300;64;20096;-32
2022/01/01 00:16:24;;;;;;;28.13;7.27;;;-4.20;99.90;;;;;;2217034;64;20465;-33
2022/01/01 00:18:51;;;;;;;28.13;7.47;;;-4.20;99.90;;;;;;2216582;64;20096;-33
2022/01/01 00:21:18;;;;;;;32.33;9.17;;;-4.20;99.90;;;;;;2217030;64;20140;-34
2022/01/01 00:23:45;;;;;;;27.90;7.23;;;-4.20;99.90;;;;;;2215003;64;20160;-33
2022/01/01 00:26:12;;;;;;;28.77;6.33;;;-4.10;99.90;;;;;;2217486;64;20095;-33
2022/01/01 00:28:39;;;;;;;29.07;7.93;;;-4.10;99.90;;;;;;2218999;64;20112;-40
2022/01/01 00:31:07;;;;;;;31.27;8.23;;;-4.20;99.90;;;;;;2219108;64;20103;-37
2022/01/01 00:33:34;;;;;;;29.73;8.57;;;-4.10;99.90;;;;;;2219068;64;20156;-37
2022/01/01 00:36:01;;;;;;;30.33;7.00;;;-4.10;99.90;;;;;;2219180;64;20088;-41
2022/01/01 00:38:27;;;;;;;21.87;6.43;;;-4.10;99.90;;;;;;2218933;64;20127;-34
2022/01/01 00:40:54;;;;;;;26.70;7.37;;;-4.10;99.90;;;;;;2215737;64;20561;-33
2022/01/01 00:43:20;;;;;;;28.10;8.43;;;-4.10;99.90;;;;;;2219010;64;20131;-34
2022/01/01 00:45:47;;;;;;;20.57;5.70;;;-4.00;99.90;;;;;;2219215;64;20092;-35
2022/01/01 00:48:14;;;;;;;36.30;8.03;;;-4.00;99.90;;;;;;2219003;64;20104;-33
2022/01/01 00:50:41;;;;;;;13.43;4.10;;;-3.90;99.90;;;;;;2219045;64;20161;-34
2022/01/01 00:53:07;;;;;;;32.00;6.77;;;-3.90;99.90;;;;;;2218935;64;20169;-34
2022/01/01 00:55:35;;;;;;;22.10;5.20;;;-3.90;99.90;;;;;;2215900;64;20104;-34
2022/01/01 00:58:02;;;;;;;18.20;5.80;;;-3.90;99.90;;;;;;2218802;64;20107;-33
2022/01/01 01:00:29;;;;;;;18.13;6.20;;;-3.90;99.90;;;;;;2219305;64;20100;-32
2022/01/01 01:03:02;;;;;;;27.23;7.43;;;-3.90;99.90;;;;;;2220490;64;20096;-34
2022/01/01 01:05:33;;;;;;;35.10;9.47;;;-3.90;99.90;;;;;;2220065;64;20193;-35
2022/01/01 01:08:00;;;;;;;29.87;7.23;;;-3.90;99.90;;;;;;2220693;64;20553;-33
2022/01/01 01:10:27;;;;;;;29.37;9.20;;;-3.90;99.90;;;;;;2220669;64;20088;-33
2022/01/01 01:12:54;;;;;;;24.30;6.83;;;-3.90;99.90;;;;;;2220564;64;20092;-42
2022/01/01 01:15:20;;;;;;;29.33;8.93;;;-3.90;99.90;;;;;;2220713;64;20597;-35
2022/01/01 01:17:49;;;;;;;37.47;11.47;;;-3.90;99.90;;;;;;2220577;64;20108;-32
2022/01/01 01:20:16;;;;;;;21.03;5.00;;;-3.90;99.90;;;;;;2220569;64;20096;-33
2022/01/01 01:22:43;;;;;;;28.63;8.30;;;-3.80;99.90;;;;;;2220487;64;20579;-34
2022/01/01 01:25:10;;;;;;;28.60;7.77;;;-3.80;99.90;;;;;;2219946;64;20080;-36
2022/01/01 01:27:37;;;;;;;34.23;8.67;;;-3.80;99.90;;;;;;2220547;64;20084;-33
2022/01/01 01:30:13;;;;;;;38.20;9.43;;;-3.80;99.90;;;;;;2219786;64;20097;-34
2022/01/01 01:32:40;;;;;;;27.00;6.23;;;-3.80;99.90;;;;;;2220523;64;20103;-33
2022/01/01 01:35:07;;;;;;;32.83;8.20;;;-3.80;99.90;;;;;;2219935;64;20194;-36
2022/01/01 01:37:34;;;;;;;31.67;7.83;;;-3.70;99.90;;;;;;2220324;64;20150;-36
2022/01/01 01:40:00;;;;;;;26.27;8.33;;;-3.70;99.90;;;;;;2219738;64;20560;-36
2022/01/01 01:42:28;;;;;;;31.23;10.53;;;-3.70;99.90;;;;;;2220529;64;20111;-35
2022/01/01 01:44:55;;;;;;;30.40;7.97;;;-3.70;99.90;;;;;;2220380;64;20526;-33
2022/01/01 01:47:35;;;;;;;30.10;8.30;;;-3.70;99.90;;;;;;2220709;64;20104;-41
2022/01/01 01:50:04;;;;;;;24.40;6.20;;;-3.70;99.90;;;;;;2220287;64;20092;-37
2022/01/01 01:52:33;;;;;;;34.93;8.90;;;-3.70;99.90;;;;;;2220653;64;20084;-33
2022/01/01 01:55:01;;;;;;;32.23;9.57;;;-3.70;99.90;;;;;;2220371;64;20084;-33
2022/01/01 01:57:28;;;;;;;28.23;6.77;;;-3.70;99.90;;;;;;2220402;64;20108;-32
2022/01/01 01:59:54;;;;;;;41.47;8.87;;;-3.70;99.90;;;;;;2219911;64;20107;-33
2022/01/01 02:02:21;;;;;;;32.30;9.53;;;-3.70;99.90;;;;;;2220573;64;20165;-35
2022/01/01 02:04:47;;;;;;;37.73;9.30;;;-3.60;99.90;;;;;;2220459;64;20194;-34
2022/01/01 02:07:14;;;;;;;17.17;4.90;;;-3.60;99.90;;;;;;2220440;64;20105;-33
2022/01/01 02:09:40;;;;;;;34.07;7.70;;;-3.70;99.90;;;;;;2220438;64;20173;-36
2022/01/01 02:12:08;;;;;;;40.33;11.97;;;-3.60;99.90;;;;;;2220600;64;20092;-34
2022/01/01 02:17:29;;;;;;;38.83;10.50;;;-3.70;99.90;;;;;;2219902;64;20146;-33
2022/01/01 02:20:01;;;;;;;32.90;9.83;;;-3.60;99.90;;;;;;2220426;64;20085;-32
2022/01/01 02:22:50;;;;;;;34.07;8.57;;;-3.60;99.90;;;;;;2218690;64;20115;-44
2022/01/01 02:25:18;;;;;;;28.80;7.97;;;-3.60;99.90;;;;;;2216904;64;20111;-33
2022/01/01 02:27:45;;;;;;;42.60;10.23;;;-3.70;99.90;;;;;;2222688;64;20099;-34
2022/01/01 02:30:13;;;;;;;48.97;11.07;;;-3.70;99.90;;;;;;2219464;64;20107;-34
2022/01/01 02:32:40;;;;;;;34.53;9.10;;;-3.60;99.90;;;;;;2219379;64;20080;-36
2022/01/01 02:35:11;;;;;;;35.03;11.00;;;-3.60;99.90;;;;;;2222662;64;20107;-32
2022/01/01 02:37:38;;;;;;;24.57;6.97;;;-3.60;99.90;;;;;;2222566;64;20084;-35
2022/01/01 02:40:05;;;;;;;28.40;7.40;;;-3.60;99.90;;;;;;2222551;64;20131;-35
2022/01/01 02:42:32;;;;;;;26.17;7.40;;;-3.60;99.90;;;;;;2222579;64;20088;-35
2022/01/01 02:44:59;;;;;;;26.97;6.90;;;-3.60;99.90;;;;;;2222733;64;20127;-40
2022/01/01 02:47:26;;;;;;;32.13;10.00;;;-3.60;99.90;;;;;;2222861;64;20088;-34
2022/01/01 02:49:52;;;;;;;14.70;5.37;;;-3.60;99.90;;;;;;2222828;64;20161;-35
2022/01/01 02:52:19;;;;;;;18.40;5.90;;;-3.60;99.90;;;;;;2223434;64;20076;-34
2022/01/01 02:54:46;;;;;;;23.83;6.80;;;-3.60;99.90;;;;;;2220828;64;20480;-35
2022/01/01 02:57:12;;;;;;;23.70;8.37;;;-3.60;99.90;;;;;;2221092;64;20209;-34
2022/01/01 02:59:39;;;;;;;18.47;5.83;;;-3.70;99.90;;;;;;2220874;64;20587;-34
2022/01/01 03:02:05;;;;;;;14.90;3.93;;;-3.70;99.90;;;;;;2221031;64;20156;-35
2022/01/01 03:04:32;;;;;;;17.00;5.27;;;-3.70;99.90;;;;;;2221139;64;20096;-38
2022/01/01 03:06:59;;;;;;;27.87;8.37;;;-3.70;99.90;;;;;;2220998;64;20480;-37
2022/01/01 03:09:34;;;;;;;18.03;5.40;;;-3.80;99.90;;;;;;2221228;64;20476;-33
2022/01/01 03:12:05;;;;;;;18.08;6.60;;;-3.80;99.90;;;;;;2221044;64;20085;-37
2022/01/01 03:14:32;;;;;;;19.77;9.23;;;-3.90;99.90;;;;;;2220250;64;20092;-39
2022/01/01 03:16:58;;;;;;;23.40;7.40;;;-3.90;99.90;;;;;;2220504;64;20089;-39
2022/01/01 03:19:25;;;;;;;22.87;6.90;;;-4.00;99.90;;;;;;2220903;64;20115;-36
2022/01/01 03:21:51;;;;;;;20.70;7.77;;;-4.00;99.90;;;;;;2220926;64;20081;-36
2022/01/01 03:24:18;;;;;;;19.10;5.87;;;-4.00;99.90;;;;;;2220887;64;20127;-33
2022/01/01 03:26:45;;;;;;;19.33;5.43;;;-4.00;99.90;;;;;;2220943;64;20103;-34
2022/01/01 03:29:11;;;;;;;16.10;6.17;;;-4.10;99.90;;;;;;2220855;64;20181;-33
2022/01/01 03:31:37;;;;;;;18.20;6.43;;;-4.00;99.90;;;;;;2220909;64;20553;-33
2022/01/01 03:34:04;;;;;;;23.63;7.07;;;-4.10;99.90;;;;;;2220867;64;20081;-33
2022/01/01 03:36:30;;;;;;;22.57;6.60;;;-4.10;99.90;;;;;;2221083;64;20088;-34
2022/01/01 03:38:57;;;;;;;24.20;7.37;;;-4.20;99.90;;;;;;2220214;64;20128;-34
2022/01/01 03:41:25;;;;;;;21.43;6.77;;;-4.10;99.90;;;;;;2220975;64;20096;-35
2022/01/01 03:43:51;;;;;;;22.37;6.17;;;-4.20;99.90;;;;;;2220987;64;20111;-35
2022/01/01 03:46:18;;;;;;;14.87;5.10;;;-4.20;99.90;;;;;;2220697;64;20112;-35
2022/01/01 03:48:44;;;;;;;19.70;5.83;;;-4.20;99.90;;;;;;2220938;64;20088;-34
2022/01/01 03:51:11;;;;;;;16.30;5.30;;;-4.10;99.90;;;;;;2218942;64;20115;-34
2022/01/01 03:53:37;;;;;;;22.57;5.17;;;-4.20;99.90;;;;;;2219096;64;20097;-32
2022/01/01 03:56:04;;;;;;;18.40;5.83;;;-4.10;99.90;;;;;;2219027;64;20143;-34
2022/01/01 03:58:31;;;;;;;14.73;4.83;;;-4.10;99.90;;;;;;2216140;64;20583;-33
2022/01/01 04:00:57;;;;;;;23.50;7.07;;;-4.20;99.90;;;;;;2218929;64;20089;-38
2022/01/01 04:03:24;;;;;;;17.70;5.43;;;-4.20;99.90;;;;;;2219268;64;20166;-38
2022/01/01 04:05:50;;;;;;;32.10;7.83;;;-4.20;99.90;;;;;;2219116;64;20107;-33
2022/01/01 04:08:16;;;;;;;15.30;4.07;;;-4.20;99.90;;;;;;2219253;64;20103;-34
2022/01/01 04:10:43;;;;;;;24.27;8.67;;;-4.20;99.90;;;;;;2218969;64;20103;-37
2022/01/01 04:13:10;;;;;;;21.07;5.90;;;-4.20;99.90;;;;;;2219219;64;20525;-34
2022/01/01 04:15:39;;;;;;;27.53;6.77;;;-4.20;99.90;;;;;;2218828;64;20491;-35
2022/01/01 04:18:10;;;;;;;33.27;9.23;;;-4.20;99.90;;;;;;2219144;64;20108;-40
2022/01/01 04:20:37;;;;;;;20.57;6.80;;;-4.20;99.90;;;;;;2219051;64;20081;-36
2022/01/01 04:23:07;;;;;;;33.27;6.53;;;-4.20;99.90;;;;;;2219235;64;20115;-39
2022/01/01 04:25:33;;;;;;;21.77;5.23;;;-4.20;99.90;;;;;;2220446;64;20095;-34
2022/01/01 04:28:00;;;;;;;20.27;6.70;;;-4.20;99.90;;;;;;2222693;64;20552;-34
2022/01/01 04:30:28;;;;;;;20.53;5.27;;;-4.20;99.90;;;;;;2220628;64;20093;-33
2022/01/01 04:32:56;;;;;;;12.47;3.70;;;-4.10;99.90;;;;;;2220785;64;20095;-33
2022/01/01 04:35:22;;;;;;;20.30;5.77;;;-4.10;99.90;;;;;;2220502;64;20076;-33
2022/01/01 04:37:49;;;;;;;21.10;6.90;;;-4.10;99.90;;;;;;2220740;64;20100;-34
2022/01/01 04:40:16;;;;;;;23.20;7.03;;;-4.10;99.90;;;;;;2220549;64;20483;-41
2022/01/01 04:42:48;;;;;;;18.00;7.30;;;-4.10;99.90;;;;;;2223013;64;20080;-33
2022/01/01 04:45:20;;;;;;;12.17;4.03;;;-4.10;99.90;;;;;;2219816;64;20556;-34
2022/01/01 04:47:51;;;;;;;6.93;3.00;;;-4.10;99.90;;;;;;2219896;64;20104;-33
2022/01/01 04:50:23;;;;;;;15.93;4.50;;;-4.10;99.90;;;;;;2219826;64;20093;-34
2022/01/01 04:52:56;;;;;;;15.07;5.77;;;-4.10;99.90;;;;;;2219934;64;20568;-38
2022/01/01 04:55:29;;;;;;;17.40;6.40;;;-4.20;99.90;;;;;;2219878;64;20184;-36
2022/01/01 04:58:00;;;;;;;18.03;6.20;;;-4.20;99.90;;;;;;2219937;64;20594;-34
2022/01/01 05:00:32;;;;;;;14.67;3.67;;;-4.20;99.90;;;;;;2220046;64;20084;-36
2022/01/01 05:03:04;;;;;;;17.00;5.00;;;-4.20;99.90;;;;;;2219970;64;20093;-36
2022/01/01 05:05:36;;;;;;;8.70;3.07;;;-4.20;99.90;;;;;;2219919;64;20172;-34
2022/01/01 05:08:10;;;;;;;17.65;5.45;;;-4.20;99.90;;;;;;2220029;64;20085;-35
2022/01/01 05:10:44;;;;;;;11.37;3.20;;;-4.10;99.90;;;;;;2219913;64;20081;-34
2022/01/01 05:13:19;;;;;;;17.23;4.17;;;-4.10;99.90;;;;;;2219677;64;20099;-33
2022/01/01 05:15:52;;;;;;;5.03;1.85;;;-4.10;99.90;;;;;;2219835;64;20088;-35
2022/01/01 05:18:23;;;;;;;12.27;4.67;;;-4.10;99.90;;;;;;2219716;64;20093;-37
2022/01/01 05:20:55;;;;;;;11.77;3.60;;;-4.00;99.90;;;;;;2219897;64;20076;-36
2022/01/01 05:23:28;;;;;;;6.60;2.70;;;-4.10;99.90;;;;;;2219819;64;20740;-32
2022/01/01 05:26:00;;;;;;;16.27;4.23;;;-4.10;99.90;;;;;;2219770;64;20556;-34
2022/01/01 05:28:32;;;;;;;9.67;3.53;;;-4.10;99.90;;;;;;2222892;64;20168;-45
2022/01/01 05:31:04;;;;;;;12.93;5.27;;;-4.10;99.90;;;;;;2222911;64;20073;-36
2022/01/01 05:33:37;;;;;;;12.97;5.10;;;-4.10;99.90;;;;;;2219815;64;20170;-32
2022/01/01 05:36:09;;;;;;;14.30;5.37;;;-4.10;99.90;;;;;;2219901;64;20088;-35
2022/01/01 05:38:41;;;;;;;16.00;5.10;;;-4.10;99.90;;;;;;2219735;64;20097;-37
2022/01/01 05:41:13;;;;;;;14.83;3.23;;;-4.10;99.90;;;;;;2219685;64;20496;-34
2022/01/01 05:43:46;;;;;;;11.10;4.43;;;-4.00;99.90;;;;;;2219810;64;20111;-33
2022/01/01 05:46:20;;;;;;;13.75;3.53;;;-4.00;99.90;;;;;;2219775;64;20111;-33
2022/01/01 05:48:52;;;;;;;8.77;2.97;;;-4.00;99.90;;;;;;2222949;64;20560;-33
2022/01/01 05:51:24;;;;;;;11.33;3.73;;;-4.00;99.90;;;;;;2222769;64;20622;-34
2022/01/01 05:53:56;;;;;;;15.07;4.80;;;-4.00;99.90;;;;;;2219888;64;20100;-36
2022/01/01 05:56:27;;;;;;;11.17;3.73;;;-4.00;99.90;;;;;;2222769;64;20658;-34
2022/01/01 05:59:01;;;;;;;9.13;4.03;;;-3.90;99.90;;;;;;2219668;64;20715;-33
2022/01/01 06:01:33;;;;;;;12.10;5.10;;;-3.90;99.90;;;;;;2219840;64;20112;-32
2022/01/01 06:04:06;;;;;;;9.67;3.10;;;-3.90;99.90;;;;;;2222817;64;20151;-35
2022/01/01 06:06:40;;;;;;;13.73;5.37;;;-3.90;99.90;;;;;;2222893;64;20181;-33
2022/01/01 06:09:12;;;;;;;6.73;2.67;;;-3.80;99.90;;;;;;2219672;64;20552;-33
2022/01/01 06:11:44;;;;;;;11.03;3.93;;;-3.70;99.90;;;;;;2219762;64;20085;-32
2022/01/01 06:14:16;;;;;;;15.57;4.83;;;-3.70;99.90;;;;;;2219786;64;20081;-33
2022/01/01 06:16:48;;;;;;;6.20;2.10;;;-3.70;99.90;;;;;;2219823;64;20560;-35
2022/01/01 06:19:20;;;;;;;10.03;4.20;;;-3.70;99.90;;;;;;2219611;64;20100;-33
2022/01/01 06:21:52;;;;;;;11.80;4.10;;;-3.70;99.90;;;;;;2219784;64;20085;-34
2022/01/01 06:24:23;;;;;;;9.20;3.70;;;-3.70;99.90;;;;;;2219782;64;20099;-33
2022/01/01 06:26:55;;;;;;;9.70;3.97;;;-3.60;99.90;;;;;;2220317;64;20175;-34
2022/01/01 06:29:27;;;;;;;13.27;4.10;;;-3.70;99.90;;;;;;2223372;64;20193;-33
2022/01/01 06:31:59;;;;;;;16.03;4.77;;;-3.70;99.90;;;;;;2223348;64;20655;-34
2022/01/01 06:34:31;;;;;;;17.20;4.90;;;-3.60;99.90;;;;;;2223541;64;20077;-34
2022/01/01 06:37:02;;;;;;;10.90;4.87;;;-3.60;99.90;;;;;;2223284;64;20173;-33
2022/01/01 06:39:35;;;;;;;12.07;3.73;;;-3.50;99.90;;;;;;2223295;64;20622;-33
2022/01/01 06:42:09;;;;;;;13.90;5.07;;;-3.60;99.90;;;;;;2223493;64;20097;-34
2022/01/01 06:44:42;;;;;;;14.10;5.57;;;-3.60;99.90;;;;;;2223515;64;20097;-34
2022/01/01 06:47:14;;;;;;;9.90;3.93;;;-3.60;99.90;;;;;;2223395;64;20164;-33
2022/01/01 06:49:45;;;;;;;11.87;3.77;;;-3.60;99.90;;;;;;2223348;64;20161;-33
2022/01/01 06:52:17;;;;;;;13.10;6.47;;;-3.50;99.90;;;;;;2223409;64;20077;-34
2022/01/01 06:54:49;;;;;;;16.50;5.47;;;-3.60;99.90;;;;;;2223303;64;20104;-32
2022/01/01 06:57:22;;;;;;;11.13;3.43;;;-3.60;99.90;;;;;;2223408;64;20093;-33
2022/01/01 06:59:54;;;;;;;11.07;5.13;;;-3.60;99.90;;;;;;2220214;64;20165;-34
2022/01/01 07:02:26;;;;;;;11.30;4.17;;;-3.50;99.90;;;;;;2223365;64;20095;-37
2022/01/01 07:04:57;;;;;;;15.90;6.07;;;-3.40;99.90;;;;;;2223379;64;20115;-39
2022/01/01 07:07:29;;;;;;;9.53;3.37;;;-3.40;99.90;;;;;;2220401;64;20103;-35
2022/01/01 07:10:02;;;;;;;7.57;2.90;;;-3.30;99.90;;;;;;2217314;64;20144;-35
2022/01/01 07:12:35;;;;;;;13.97;5.10;;;-3.20;99.90;;;;;;2223445;64;20100;-39
2022/01/01 07:15:07;;;;;;;12.60;4.77;;;-3.20;99.90;;;;;;2223465;64;20552;-35
2022/01/01 07:17:39;;;;;;;11.03;3.57;;;-3.10;99.90;;;;;;2223529;64;20100;-34
2022/01/01 07:20:11;;;;;;;19.97;7.40;;;-2.90;99.90;;;;;;2223717;64;19972;-37
2022/01/01 07:22:44;;;;;;;14.80;4.60;;;-3.00;99.90;;;;;;2220410;64;20107;-37
2022/01/01 07:25:16;;;;;;;19.27;6.03;;;-2.90;99.90;;;;;;2223473;64;20115;-35
2022/01/01 07:27:48;;;;;;;21.20;7.23;;;-2.70;99.90;;;;;;2220332;64;20103;-34
2022/01/01 07:30:20;;;;;;;15.33;6.40;;;-2.50;99.90;;;;;;2223374;64;20092;-36
2022/01/01 07:32:52;;;;;;;22.20;6.80;;;-2.60;99.90;;;;;;2223422;64;20103;-37
2022/01/01 07:35:24;;;;;;;15.47;5.80;;;-2.20;99.90;;;;;;2220108;64;20107;-34
2022/01/01 07:37:55;;;;;;;10.63;4.00;;;-2.00;99.90;;;;;;2220286;64;20100;-35
2022/01/01 07:40:28;;;;;;;13.70;3.33;;;-2.10;99.90;;;;;;2223416;64;20190;-35
2022/01/01 07:43:12;;;;;;;19.10;5.80;;;-2.10;99.90;;;;;;2220305;64;20521;-36
2022/01/01 07:45:45;;;;;;;13.97;5.57;;;-2.10;99.90;;;;;;2220299;64;20097;-37
2022/01/01 07:48:17;;;;;;;13.47;4.20;;;-2.30;99.90;;;;;;2220239;64;20108;-37
2022/01/01 07:50:48;;;;;;;15.93;6.30;;;-2.60;99.90;;;;;;2220202;64;20103;-37
2022/01/01 07:53:20;;;;;;;14.57;5.60;;;-2.40;99.90;;;;;;2223286;64;20147;-38
2022/01/01 07:55:52;;;;;;;16.97;7.00;;;-2.50;99.90;;;;;;2223218;64;20202;-37
2022/01/01 07:58:24;;;;;;;13.03;5.70;;;-2.60;99.90;;;;;;2220292;64;20119;-35
2022/01/01 08:00:55;;;;;;;16.60;6.20;;;-2.70;99.90;;;;;;2223307;64;20073;-34
2022/01/01 08:03:27;;;;;;;14.67;6.00;;;-2.90;99.90;;;;;;2223475;64;20096;-34
2022/01/01 08:05:59;;;;;;;19.70;6.37;;;-2.90;99.90;;;;;;2223426;64;20120;-34
2022/01/01 08:08:31;;;;;;;9.00;3.53;;;-3.00;99.90;;;;;;2223369;64;20104;-38
2022/01/01 08:11:03;;;;;;;24.27;6.70;;;-2.70;99.90;;;;;;2220251;64;20100;-38
2022/01/01 08:13:36;;;;;;;16.10;6.10;;;-2.80;99.90;;;;;;2223351;64;20085;-34
2022/01/01 08:16:08;;;;;;;13.70;7.10;;;-2.70;99.90;;;;;;2220182;64;20084;-37
2022/01/01 08:18:40;;;;;;;12.10;3.40;;;-2.60;99.90;;;;;;2220090;64;20113;-35
2022/01/01 08:21:12;;;;;;;21.10;6.93;;;-2.40;99.90;;;;;;2223345;64;20556;-36
2022/01/01 08:23:44;;;;;;;15.40;6.70;;;-2.10;99.90;;;;;;2220244;64;20102;-34
2022/01/01 08:26:16;;;;;;;16.93;6.53;;;-2.00;99.90;;;;;;2223261;64;20161;-34
2022/01/01 08:28:48;;;;;;;9.30;3.27;;;-2.10;99.90;;;;;;2223351;64;20097;-44
2022/01/01 08:31:20;;;;;;;12.57;5.03;;;-2.10;99.90;;;;;;2223337;64;20096;-35
2022/01/01 08:33:51;;;;;;;7.87;3.40;;;-2.20;99.90;;;;;;2223267;64;20123;-35
2022/01/01 08:36:23;;;;;;;16.60;5.10;;;-2.30;99.90;;;;;;2223423;64;20077;-37
2022/01/01 08:38:55;;;;;;;9.97;4.13;;;-2.50;99.90;;;;;;2217053;64;20123;-33
2022/01/01 08:41:27;;;;;;;15.77;5.63;;;-2.40;99.90;;;;;;2223245;64;20092;-38
2022/01/01 08:43:58;;;;;;;16.53;6.23;;;-2.60;99.90;;;;;;2223321;64;20076;-34
2022/01/01 08:46:30;;;;;;;11.43;5.43;;;-2.10;99.90;;;;;;2223012;64;20083;-35
2022/01/01 08:49:03;;;;;;;12.50;4.80;;;-2.20;99.90;;;;;;2223015;64;20101;-36
2022/01/01 08:51:35;;;;;;;13.70;4.70;;;-2.00;99.90;;;;;;2222969;64;20089;-34
2022/01/01 08:54:07;;;;;;;15.40;5.43;;;-2.00;99.90;;;;;;2219888;64;20085;-34
2022/01/01 08:56:39;;;;;;;10.87;3.73;;;-2.20;99.90;;;;;;2222904;64;20484;-33
2022/01/01 08:59:11;;;;;;;8.93;3.90;;;-2.20;99.90;;;;;;2222807;64;20170;-36
2022/01/01 09:01:43;;;;;;;8.63;4.20;;;-2.30;99.90;;;;;;2223003;64;20096;-36
2022/01/01 09:04:15;;;;;;;8.37;3.47;;;-2.50;99.90;;;;;;2223168;64;20097;-38
2022/01/01 09:06:47;;;;;;;12.17;5.50;;;-2.60;99.90;;;;;;2223090;64;20104;-37
2022/01/01 09:09:19;;;;;;;10.47;4.27;;;-2.60;99.90;;;;;;2220061;64;20096;-34
2022/01/01 09:11:51;;;;;;;11.70;4.60;;;-2.70;99.90;;;;;;2223050;64;20095;-36
2022/01/01 09:14:23;;;;;;;14.07;4.63;;;-2.70;99.90;;;;;;2219870;64;20092;-34
2022/01/01 09:16:55;;;;;;;15.90;3.20;;;-2.70;99.90;;;;;;2222923;64;20096;-40
2022/01/01 09:19:27;;;;;;;9.63;3.10;;;-2.80;99.90;;;;;;2222887;64;20093;-33
2022/01/01 09:21:59;;;;;;;8.73;4.03;;;-2.80;99.90;;;;;;2223053;64;20084;-35
2022/01/01 09:24:31;;;;;;;6.53;2.23;;;-2.80;99.90;;;;;;2223020;64;20491;-33
2022/01/01 09:27:04;;;;;;;11.23;4.43;;;-2.70;99.90;;;;;;2219919;64;20478;-35
2022/01/01 09:29:35;;;;;;;9.60;3.83;;;-2.80;99.90;;;;;;2219966;64;20110;-35
2022/01/01 09:32:07;;;;;;;10.63;4.27;;;-2.70;99.90;;;;;;2222992;64;20615;-32
2022/01/01 09:34:39;;;;;;;9.30;4.23;;;-2.70;99.90;;;;;;2219920;64;20426;-34
2022/01/01 09:37:11;;;;;;;7.77;3.10;;;-2.70;99.90;;;;;;2222942;64;20476;-34
2022/01/01 09:39:43;;;;;;;7.40;2.37;;;-2.60;99.90;;;;;;2219693;64;20108;-35
2022/01/01 09:42:15;;;;;;;6.77;2.97;;;-2.60;99.90;;;;;;2219939;64;20168;-34
2022/01/01 09:44:47;;;;;;;8.10;2.67;;;-2.70;99.90;;;;;;2208783;64;20097;-33
2022/01/01 09:47:19;;;;;;;8.87;3.80;;;-2.60;99.90;;;;;;2212003;64;20573;-36
2022/01/01 09:49:51;;;;;;;5.03;2.40;;;-2.70;99.90;;;;;;2211984;64;20598;-33
2022/01/01 09:52:23;;;;;;;8.10;3.00;;;-2.60;99.90;;;;;;2211911;64;20095;-42
2022/01/01 09:54:55;;;;;;;6.73;2.63;;;-2.70;99.90;;;;;;2211741;64;20279;-39
2022/01/01 09:57:27;;;;;;;6.60;2.73;;;-2.60;99.90;;;;;;2211866;64;20093;-35
2022/01/01 09:59:59;;;;;;;7.23;2.53;;;-2.60;99.90;;;;;;2211550;64;20127;-35
2022/01/01 10:02:32;;;;;;;9.10;3.23;;;-2.60;99.90;;;;;;2211914;64;20108;-34
2022/01/01 10:05:05;;;;;;;5.50;2.00;;;-2.70;99.90;;;;;;2211733;64;20089;-34
2022/01/01 10:07:37;;;;;;;5.90;1.83;;;-2.60;99.90;;;;;;2214973;64;20148;-33
2022/01/01 10:10:19;;;;;;;8.20;2.57;;;-2.50;99.90;;;;;;2211716;64;20207;-35
2022/01/01 10:12:51;;;;;;;7.23;2.67;;;-2.50;99.90;;;;;;2211952;64;20244;-37
2022/01/01 10:15:22;;;;;;;8.47;2.67;;;-2.60;99.90;;;;;;2216464;64;20111;-37
2022/01/01 10:17:54;;;;;;;7.63;2.63;;;-2.60;99.90;;;;;;2219738;64;20081;-41
2022/01/01 10:20:26;;;;;;;6.13;2.30;;;-2.50;99.90;;;;;;2222804;64;20092;-34
2022/01/01 10:23:10;;;;;;;2.10;1.00;;;-2.50;99.90;;;;;;2219788;64;20104;-38
2022/01/01 10:28:33;;;;;;;5.00;2.17;;;-2.50;99.90;;;;;;2216529;64;20178;-32
2022/01/01 10:31:08;;;;;;;7.40;2.90;;;-2.50;99.90;;;;;;2215951;64;20070;-35
2022/01/01 10:33:44;;;;;;;;;;;-2.60;99.90;;;;;;2216256;64;20162;-35
2022/01/01 10:36:15;;;;;;;;;;;-2.60;99.90;;;;;;2219124;64;19976;-38
2022/01/01 10:38:47;;;;;;;8.23;2.60;;;-2.60;99.90;;;;;;2215961;64;19985;-36
2022/01/01 10:41:19;;;;;;;5.53;1.50;;;-2.60;99.90;;;;;;2215966;64;20097;-33
2022/01/01 10:43:52;;;;;;;7.57;3.40;;;-2.50;99.90;;;;;;2219157;64;20096;-33
2022/01/01 10:46:24;;;;;;;5.27;2.47;;;-2.50;99.90;;;;;;2219119;64;20085;-34
2022/01/01 10:49:00;;;;;;;9.87;4.80;;;-2.50;99.90;;;;;;2218984;64;20085;-36
2022/01/01 10:51:36;;;;;;;12.77;4.67;;;-2.50;99.90;;;;;;2218989;64;20174;-32
2022/01/01 10:54:10;;;;;;;10.73;5.37;;;-2.60;99.90;;;;;;2219100;64;20097;-32
2022/01/01 10:56:42;;;;;;;14.13;5.17;;;-2.60;99.90;;;;;;2218816;64;20116;-33
2022/01/01 10:59:14;;;;;;;8.40;3.63;;;-2.70;99.90;;;;;;2211527;64;20085;-33
2022/01/01 11:01:49;;;;;;;8.53;3.30;;;-2.60;99.90;;;;;;2208732;64;20097;-32
2022/01/01 11:04:20;;;;;;;9.75;4.40;;;-2.60;99.90;;;;;;2211749;64;20097;-39
2022/01/01 11:06:52;;;;;;;15.10;6.60;;;-2.60;99.90;;;;;;2208813;64;20096;-33
2022/01/01 11:09:24;;;;;;;13.13;5.57;;;-2.60;99.90;;;;;;2214903;64;20183;-35
2022/01/01 11:12:02;;;;;;;9.70;3.67;;;-2.60;99.90;;;;;;2212417;64;20089;-36
2022/01/01 11:14:35;;;;;;;10.90;4.60;;;-2.60;99.90;;;;;;2209615;64;20211;-35
2022/01/01 11:17:07;;;;;;;6.13;3.20;;;-2.60;99.90;;;;;;2212616;64;20103;-34
2022/01/01 11:19:38;;;;;;;9.50;5.07;;;-2.60;99.90;;;;;;2212468;64;20173;-33
2022/01/01 11:22:10;;;;;;;8.43;3.67;;;-2.70;99.90;;;;;;2212607;64;20085;-32
2022/01/01 11:24:42;;;;;;;12.03;4.80;;;-2.80;99.90;;;;;;2209260;64;20194;-34
2022/01/01 11:27:15;;;;;;;9.60;4.90;;;-2.80;99.90;;;;;;2212322;64;20085;-34
2022/01/01 11:29:50;;;;;;;8.13;3.30;;;-2.80;99.90;;;;;;2215549;64;20089;-40
2022/01/01 11:32:23;;;;;;;11.17;3.67;;;-2.80;99.90;;;;;;2216466;64;20168;-33
2022/01/01 11:34:55;;;;;;;11.93;4.77;;;-2.90;99.90;;;;;;2216546;64;20077;-33
2022/01/01 11:37:26;;;;;;;7.33;3.37;;;-2.90;99.90;;;;;;2216490;64;20107;-34
2022/01/01 11:40:00;;;;;;;12.13;5.57;;;-2.90;99.90;;;;;;2213264;64;20198;-38
2022/01/01 11:42:34;;;;;;;8.82;3.58;;;-3.00;99.90;;;;;;2213369;64;20515;-39
2022/01/01 11:45:13;;;;;;;8.33;3.43;;;-3.00;99.90;;;;;;2216330;64;20100;-35
2022/01/01 11:47:45;;;;;;;12.87;5.43;;;-3.00;99.90;;;;;;2216378;64;20097;-34
2022/01/01 11:50:43;;;;;;;14.03;5.20;;;-3.10;99.90;;;;;;2216542;64;20478;-34
2022/01/01 11:53:31;;;;;;;13.43;6.80;;;-3.10;99.90;;;;;;2216401;64;20100;-32
2022/01/01 11:56:10;;;;;;;19.40;8.13;;;-3.20;99.90;;;;;;2213201;64;20103;-35
2022/01/01 11:58:49;;;;;;;17.53;7.00;;;-3.20;99.90;;;;;;2216419;64;20612;-34
2022/01/01 12:01:22;;;;;;;18.33;7.40;;;-3.20;99.90;;;;;;2216443;64;20496;-33
2022/01/01 12:03:58;;;;;;;15.10;7.77;;;-3.30;99.90;;;;;;2216557;64;20171;-36
2022/01/01 12:06:30;;;;;;;18.77;7.90;;;-3.30;99.90;;;;;;2216524;64;20557;-48
2022/01/01 12:09:02;;;;;;;15.63;6.93;;;-3.30;99.90;;;;;;2216509;64;20170;-37
2022/01/01 12:11:34;;;;;;;12.57;5.87;;;-3.30;99.90;;;;;;2213366;64;20108;-33
2022/01/01 12:14:07;;;;;;;13.17;5.37;;;-3.40;99.90;;;;;;2216381;64;20203;-33
2022/01/01 12:16:50;;;;;;;13.87;6.60;;;-3.40;99.90;;;;;;2216301;64;20553;-35
2022/01/01 12:19:25;;;;;;;16.50;7.20;;;-3.40;99.90;;;;;;2216169;64;20439;-37
2022/01/01 12:22:05;;;;;;;16.23;6.07;;;-3.40;99.90;;;;;;2216239;64;20077;-35
2022/01/01 12:24:41;;;;;;;6.57;3.17;;;-3.40;99.90;;;;;;2216226;64;20099;-33
2022/01/01 12:27:14;;;;;;;11.73;5.30;;;-3.40;99.90;;;;;;2219300;64;20497;-34
2022/01/01 12:29:46;;;;;;;11.63;5.23;;;-3.40;99.90;;;;;;2219287;64;20085;-36
2022/01/01 12:32:39;;;;;;;12.53;5.23;;;-3.50;99.90;;;;;;2216219;64;20202;-35
2022/01/01 12:35:17;;;;;;;9.40;4.77;;;-3.50;99.90;;;;;;2212540;64;20612;-44
2022/01/01 12:37:50;;;;;;;11.43;4.67;;;-3.50;99.90;;;;;;2219329;64;20096;-34
2022/01/01 12:40:23;;;;;;;11.37;5.10;;;-3.50;99.90;;;;;;2216223;64;20117;-34
2022/01/01 12:42:55;;;;;;;8.40;3.67;;;-3.50;99.90;;;;;;2213212;64;20085;-35
2022/01/01 12:45:29;;;;;;;10.07;4.27;;;-3.50;99.90;;;;;;2216398;64;20172;-38
2022/01/01 12:48:05;;;;;;;11.17;3.67;;;-3.50;99.90;;;;;;2219327;64;20623;-40
2022/01/01 12:50:38;;;;;;;10.57;4.10;;;-3.50;99.90;;;;;;2219313;64;20089;-40
2022/01/01 12:53:10;;;;;;;10.87;4.97;;;-3.50;99.90;;;;;;2219256;64;20085;-34
2022/01/01 12:55:41;;;;;;;15.53;4.37;;;-3.50;99.90;;;;;;2216068;64;20127;-36
2022/01/01 12:58:20;;;;;;;15.30;5.23;;;-3.50;99.90;;;;;;2216118;64;20092;-39
2022/01/01 13:00:52;;;;;;;8.83;3.47;;;-3.50;99.90;;;;;;2213309;64;20081;-35
2022/01/01 13:03:25;;;;;;;8.73;4.10;;;-3.50;99.90;;;;;;2216266;64;20095;-32
2022/01/01 13:05:57;;;;;;;11.53;5.30;;;-3.50;99.90;;;;;;2208046;64;20098;-34